sensor_id;sensor_type;location;lat;lon;timestamp;pressure;altitude;pressure_sealevel;temperature;humidity
55675;BME280;41562;44.330;23.802;2023-05-24T00:02:21;99983.53;;;15.78;100.00
55675;BME280;41562;44.330;23.802;2023-05-24T00:04:48;99984.59;;;15.59;100.00
55675;BME280;41562;44.330;23.802;2023-05-24T00:07:16;99975.53;;;15.55;100.00
55675;BME280;41562;44.330;23.802;2023-05-24T00:09:43;99982.06;;;15.63;100.00
55675;BME280;41562;44.330;23.802;2023-05-24T00:12:10;99983.84;;;15.67;100.00
55675;BME280;41562;44.330;23.802;2023-05-24T00:14:37;99986.09;;;15.74;100.00
55675;BME280;41562;44.330;23.802;2023-05-24T00:17:05;99977.22;;;15.82;100.00
55675;BME280;41562;44.330;23.802;2023-05-24T00:19:32;99973.38;;;15.75;100.00
55675;BME280;41562;44.330;23.802;2023-05-24T00:22:00;99974.59;;;15.60;100.00
55675;BME280;41562;44.330;23.802;2023-05-24T00:24:27;99973.31;;;15.57;100.00
55675;BME280;41562;44.330;23.802;2023-05-24T00:26:54;99977.44;;;15.55;100.00
55675;BME280;41562;44.330;23.802;2023-05-24T00:29:21;99971.25;;;15.54;100.00
55675;BME280;41562;44.330;23.802;2023-05-24T00:31:49;99975.47;;;15.47;100.00
55675;BME280;41562;44.330;23.802;2023-05-24T00:34:16;99968.47;;;15.46;100.00
55675;BME280;41562;44.330;23.802;2023-05-24T00:36:43;99968.84;;;15.53;100.00
55675;BME280;41562;44.330;23.802;2023-05-24T00:39:10;99962.47;;;15.49;100.00
55675;BME280;41562;44.330;23.802;2023-05-24T00:41:37;99970.88;;;15.47;100.00
55675;BME280;41562;44.330;23.802;2023-05-24T00:44:05;99979.41;;;15.49;100.00
55675;BME280;41562;44.330;23.802;2023-05-24T00:46:32;99968.47;;;15.46;100.00
55675;BME280;41562;44.330;23.802;2023-05-24T00:49:01;99973.94;;;15.32;100.00
55675;BME280;41562;44.330;23.802;2023-05-24T00:51:29;99969.78;;;15.26;100.00
55675;BME280;41562;44.330;23.802;2023-05-24T00:53:57;99965.81;;;15.23;100.00
55675;BME280;41562;44.330;23.802;2023-05-24T00:56:25;99971.09;;;15.37;100.00
55675;BME280;41562;44.330;23.802;2023-05-24T00:58:52;99966.13;;;15.22;100.00
55675;BME280;41562;44.330;23.802;2023-05-24T01:01:19;99960.16;;;15.03;100.00
55675;BME280;41562;44.330;23.802;2023-05-24T01:03:47;99960.16;;;15.03;100.00
55675;BME280;41562;44.330;23.802;2023-05-24T01:06:14;99962.72;;;15.08;100.00
55675;BME280;41562;44.330;23.802;2023-05-24T01:08:47;99964.31;;;15.09;100.00
55675;BME280;41562;44.330;23.802;2023-05-24T01:11:45;99962.34;;;15.01;100.00
55675;BME280;41562;44.330;23.802;2023-05-24T01:14:25;99960.44;;;15.01;100.00
55675;BME280;41562;44.330;23.802;2023-05-24T01:17:08;99965.91;;;15.10;100.00
55675;BME280;41562;44.330;23.802;2023-05-24T01:27:16;99950.72;;;15.14;100.00
55675;BME280;41562;44.330;23.802;2023-05-24T01:29:44;99958.66;;;15.19;100.00
55675;BME280;41562;44.330;23.802;2023-05-24T01:32:11;99961.22;;;15.24;100.00
55675;BME280;41562;44.330;23.802;2023-05-24T01:34:39;99962.09;;;15.11;100.00
55675;BME280;41562;44.330;23.802;2023-05-24T01:37:06;99954.56;;;14.99;100.00
55675;BME280;41562;44.330;23.802;2023-05-24T01:39:33;99957.94;;;15.05;100.00
55675;BME280;41562;44.330;23.802;2023-05-24T01:42:10;99960.56;;;14.96;100.00
55675;BME280;41562;44.330;23.802;2023-05-24T01:44:53;99957.69;;;15.15;100.00
55675;BME280;41562;44.330;23.802;2023-05-24T01:50:27;99962.09;;;15.11;100.00
55675;BME280;41562;44.330;23.802;2023-05-24T01:52:57;99949.38;;;15.03;100.00
55675;BME280;41562;44.330;23.802;2023-05-24T01:55:29;99951.94;;;15.08;100.00
55675;BME280;41562;44.330;23.802;2023-05-24T01:58:02;99946.56;;;15.08;100.00
55675;BME280;41562;44.330;23.802;2023-05-24T02:00:31;99947.50;;;15.12;100.00
55675;BME280;41562;44.330;23.802;2023-05-24T02:03:00;99943.00;;;14.99;100.00
55675;BME280;41562;44.330;23.802;2023-05-24T02:05:28;99938.91;;;15.01;100.00
55675;BME280;41562;44.330;23.802;2023-05-24T02:07:57;99939.03;;;14.96;100.00
55675;BME280;41562;44.330;23.802;2023-05-24T02:10:25;99944.59;;;15.00;100.00
55675;BME280;41562;44.330;23.802;2023-05-24T02:12:52;99948.75;;;15.06;100.00
55675;BME280;41562;44.330;23.802;2023-05-24T02:15:19;99951.78;;;15.04;100.00
55675;BME280;41562;44.330;23.802;2023-05-24T02:17:47;99949.53;;;15.06;100.00
55675;BME280;41562;44.330;23.802;2023-05-24T02:20:14;99940.19;;;15.04;100.00
55675;BME280;41562;44.330;23.802;2023-05-24T02:22:41;99943.19;;;15.02;100.00
55675;BME280;41562;44.330;23.802;2023-05-24T02:25:09;99943.34;;;15.06;100.00
55675;BME280;41562;44.330;23.802;2023-05-24T02:27:36;99947.28;;;15.00;100.00
55675;BME280;41562;44.330;23.802;2023-05-24T02:30:05;99955.63;;;14.89;100.00
55675;BME280;41562;44.330;23.802;2023-05-24T02:32:33;99941.63;;;14.79;100.00
55675;BME280;41562;44.330;23.802;2023-05-24T02:35:04;99944.47;;;14.82;100.00
55675;BME280;41562;44.330;23.802;2023-05-24T02:37:31;99936.28;;;14.87;100.00
55675;BME280;41562;44.330;23.802;2023-05-24T02:39:59;99934.09;;;14.89;100.00
55675;BME280;41562;44.330;23.802;2023-05-24T02:42:29;99939.53;;;14.76;100.00
55675;BME280;41562;44.330;23.802;2023-05-24T02:44:59;99937.81;;;14.80;100.00
55675;BME280;41562;44.330;23.802;2023-05-24T02:47:27;99949.13;;;14.91;100.00
55675;BME280;41562;44.330;23.802;2023-05-24T02:49:55;99942.50;;;14.74;100.00
55675;BME280;41562;44.330;23.802;2023-05-24T02:52:22;99947.22;;;14.69;100.00
55675;BME280;41562;44.330;23.802;2023-05-24T02:54:49;99947.81;;;14.79;100.00
55675;BME280;41562;44.330;23.802;2023-05-24T02:57:17;99950.16;;;14.81;100.00
55675;BME280;41562;44.330;23.802;2023-05-24T02:59:44;99947.97;;;14.83;100.00
55675;BME280;41562;44.330;23.802;2023-05-24T03:02:11;99953.47;;;14.78;100.00
55675;BME280;41562;44.330;23.802;2023-05-24T03:04:39;99949.69;;;14.79;100.00
55675;BME280;41562;44.330;23.802;2023-05-24T03:07:06;99952.84;;;14.81;100.00
55675;BME280;41562;44.330;23.802;2023-05-24T03:09:33;99959.66;;;14.78;100.00
55675;BME280;41562;44.330;23.802;2023-05-24T03:12:00;99953.78;;;14.76;100.00
55675;BME280;41562;44.330;23.802;2023-05-24T03:14:28;99957.31;;;14.63;100.00
55675;BME280;41562;44.330;23.802;2023-05-24T03:16:55;99949.88;;;14.60;100.00
55675;BME280;41562;44.330;23.802;2023-05-24T03:19:22;99948.94;;;16.36;100.00
55675;BME280;41562;44.330;23.802;2023-05-24T03:21:49;99957.97;;;17.73;99.16
55675;BME280;41562;44.330;23.802;2023-05-24T03:24:17;99961.00;;;17.72;95.59
55675;BME280;41562;44.330;23.802;2023-05-24T03:26:44;99973.09;;;17.10;97.90
55675;BME280;41562;44.330;23.802;2023-05-24T03:29:12;99965.81;;;16.68;100.00
55675;BME280;41562;44.330;23.802;2023-05-24T03:31:39;99965.44;;;17.29;100.00
55675;BME280;41562;44.330;23.802;2023-05-24T03:34:06;99969.53;;;17.36;100.00
55675;BME280;41562;44.330;23.802;2023-05-24T03:36:34;99960.88;;;17.59;100.00
55675;BME280;41562;44.330;23.802;2023-05-24T03:39:02;99960.94;;;17.34;97.92
55675;BME280;41562;44.330;23.802;2023-05-24T03:41:30;99966.28;;;16.70;100.00
55675;BME280;41562;44.330;23.802;2023-05-24T03:43:57;99962.63;;;16.92;100.00
55675;BME280;41562;44.330;23.802;2023-05-24T03:46:24;99968.44;;;17.37;98.03
55675;BME280;41562;44.330;23.802;2023-05-24T03:48:52;99973.22;;;17.22;96.92
55675;BME280;41562;44.330;23.802;2023-05-24T03:51:19;99980.28;;;17.70;94.61
55675;BME280;41562;44.330;23.802;2023-05-24T03:53:46;99983.09;;;17.82;92.26
55675;BME280;41562;44.330;23.802;2023-05-24T03:56:14;99985.94;;;17.31;96.34
55675;BME280;41562;44.330;23.802;2023-05-24T03:58:41;99979.50;;;17.99;93.54
55675;BME280;41562;44.330;23.802;2023-05-24T04:01:08;99984.66;;;17.83;92.85
55675;BME280;41562;44.330;23.802;2023-05-24T04:03:42;99987.75;;;17.64;94.47
55675;BME280;41562;44.330;23.802;2023-05-24T04:06:13;99987.31;;;17.62;94.50
55675;BME280;41562;44.330;23.802;2023-05-24T04:08:43;99985.03;;;18.02;93.46
55675;BME280;41562;44.330;23.802;2023-05-24T04:11:25;99980.94;;;17.96;92.39
55675;BME280;41562;44.330;23.802;2023-05-24T04:13:53;99987.84;;;17.85;93.69
55675;BME280;41562;44.330;23.802;2023-05-24T04:16:22;99992.81;;;18.13;92.65
55675;BME280;41562;44.330;23.802;2023-05-24T04:18:50;99986.81;;;17.98;93.35
55675;BME280;41562;44.330;23.802;2023-05-24T04:21:18;99990.28;;;18.07;93.52
55675;BME280;41562;44.330;23.802;2023-05-24T04:23:46;99995.84;;;17.73;95.58
55675;BME280;41562;44.330;23.802;2023-05-24T04:26:14;99995.84;;;17.73;95.64
55675;BME280;41562;44.330;23.802;2023-05-24T04:28:43;99994.28;;;17.55;97.16
55675;BME280;41562;44.330;23.802;2023-05-24T04:31:11;100002.09;;;17.56;97.15
55675;BME280;41562;44.330;23.802;2023-05-24T04:33:39;99999.69;;;17.55;97.57
55675;BME280;41562;44.330;23.802;2023-05-24T04:36:07;99998.84;;;18.09;94.33
55675;BME280;41562;44.330;23.802;2023-05-24T04:38:35;100002.78;;;17.91;95.24
55675;BME280;41562;44.330;23.802;2023-05-24T04:41:03;100008.19;;;17.36;99.32
55675;BME280;41562;44.330;23.802;2023-05-24T04:43:32;100005.38;;;16.89;100.00
55675;BME280;41562;44.330;23.802;2023-05-24T04:46:00;100011.38;;;16.69;100.00
55675;BME280;41562;44.330;23.802;2023-05-24T04:48:29;100013.63;;;16.84;100.00
55675;BME280;41562;44.330;23.802;2023-05-24T04:50:57;100013.78;;;16.71;100.00
55675;BME280;41562;44.330;23.802;2023-05-24T04:53:24;100004.56;;;16.72;100.00
55675;BME280;41562;44.330;23.802;2023-05-24T04:55:52;100010.44;;;16.65;100.00
55675;BME280;41562;44.330;23.802;2023-05-24T04:58:19;100013.78;;;16.71;100.00
55675;BME280;41562;44.330;23.802;2023-05-24T05:00:46;100024.41;;;16.76;100.00
55675;BME280;41562;44.330;23.802;2023-05-24T05:03:14;100019.19;;;16.79;100.00
55675;BME280;41562;44.330;23.802;2023-05-24T05:05:42;100024.09;;;16.95;100.00
55675;BME280;41562;44.330;23.802;2023-05-24T05:08:20;100023.16;;;16.99;100.00
55675;BME280;41562;44.330;23.802;2023-05-24T05:10:48;100041.44;;;17.02;100.00
55675;BME280;41562;44.330;23.802;2023-05-24T05:13:15;100033.16;;;17.07;100.00
55675;BME280;41562;44.330;23.802;2023-05-24T05:15:42;100030.31;;;17.12;100.00
55675;BME280;41562;44.330;23.802;2023-05-24T05:18:10;100029.84;;;17.19;100.00
55675;BME280;41562;44.330;23.802;2023-05-24T05:20:37;100028.69;;;17.28;100.00
55675;BME280;41562;44.330;23.802;2023-05-24T05:23:04;100028.69;;;17.28;100.00
55675;BME280;41562;44.330;23.802;2023-05-24T05:25:31;100034.22;;;17.41;100.00
55675;BME280;41562;44.330;23.802;2023-05-24T05:27:59;100031.22;;;17.51;100.00
55675;BME280;41562;44.330;23.802;2023-05-24T05:30:26;100034.97;;;17.58;100.00
55675;BME280;41562;44.330;23.802;2023-05-24T05:32:53;100039.31;;;17.68;100.00
55675;BME280;41562;44.330;23.802;2023-05-24T05:35:20;100034.00;;;17.80;100.00
55675;BME280;41562;44.330;23.802;2023-05-24T05:37:48;100038.59;;;17.88;100.00
55675;BME280;41562;44.330;23.802;2023-05-24T05:40:15;100044.41;;;18.07;100.00
55675;BME280;41562;44.330;23.802;2023-05-24T05:42:42;100044.84;;;18.18;100.00
55675;BME280;41562;44.330;23.802;2023-05-24T05:45:10;100045.03;;;18.13;100.00
55675;BME280;41562;44.330;23.802;2023-05-24T05:47:37;100041.50;;;18.13;100.00
55675;BME280;41562;44.330;23.802;2023-05-24T05:50:06;100043.28;;;18.38;100.00
55675;BME280;41562;44.330;23.802;2023-05-24T05:52:34;100046.59;;;18.43;100.00
55675;BME280;41562;44.330;23.802;2023-05-24T05:55:01;100048.63;;;18.55;100.00
55675;BME280;41562;44.330;23.802;2023-05-24T05:57:29;100051.09;;;18.69;99.52
55675;BME280;41562;44.330;23.802;2023-05-24T05:59:56;100051.47;;;18.79;99.35
55675;BME280;41562;44.330;23.802;2023-05-24T06:02:23;100054.84;;;18.97;99.62
55675;BME280;41562;44.330;23.802;2023-05-24T06:04:51;100052.47;;;19.16;98.83
55675;BME280;41562;44.330;23.802;2023-05-24T06:07:19;100053.78;;;19.31;97.81
55675;BME280;41562;44.330;23.802;2023-05-24T06:09:46;100052.91;;;19.39;95.87
55675;BME280;41562;44.330;23.802;2023-05-24T06:12:13;100050.63;;;19.62;96.69
55675;BME280;41562;44.330;23.802;2023-05-24T06:14:41;100053.72;;;19.73;96.46
55675;BME280;41562;44.330;23.802;2023-05-24T06:17:08;100049.66;;;19.91;95.83
55675;BME280;41562;44.330;23.802;2023-05-24T06:19:36;100053.19;;;20.03;95.16
55675;BME280;41562;44.330;23.802;2023-05-24T06:22:04;100058.94;;;19.90;91.99
55675;BME280;41562;44.330;23.802;2023-05-24T06:24:31;100054.41;;;20.18;92.86
55675;BME280;41562;44.330;23.802;2023-05-24T06:26:59;100056.00;;;20.31;92.31
55675;BME280;41562;44.330;23.802;2023-05-24T06:29:26;100055.97;;;20.80;89.86
55675;BME280;41562;44.330;23.802;2023-05-24T06:31:54;100053.66;;;20.94;89.27
55675;BME280;41562;44.330;23.802;2023-05-24T06:34:21;100054.91;;;20.97;90.71
55675;BME280;41562;44.330;23.802;2023-05-24T06:36:48;100059.75;;;21.15;87.49
55675;BME280;41562;44.330;23.802;2023-05-24T06:39:16;100067.13;;;21.43;86.22
55675;BME280;41562;44.330;23.802;2023-05-24T06:41:43;100057.75;;;21.56;85.12
55675;BME280;41562;44.330;23.802;2023-05-24T06:44:11;100068.81;;;21.63;81.78
55675;BME280;41562;44.330;23.802;2023-05-24T06:46:38;100063.13;;;21.68;82.79
55675;BME280;41562;44.330;23.802;2023-05-24T06:49:06;100067.56;;;22.04;82.53
55675;BME280;41562;44.330;23.802;2023-05-24T06:51:33;100060.25;;;22.24;81.50
55675;BME280;41562;44.330;23.802;2023-05-24T06:54:01;100072.47;;;22.14;83.47
55675;BME280;41562;44.330;23.802;2023-05-24T06:56:29;100064.13;;;22.23;82.04
55675;BME280;41562;44.330;23.802;2023-05-24T06:58:58;100069.03;;;22.01;84.03
55675;BME280;41562;44.330;23.802;2023-05-24T07:01:26;100064.19;;;22.42;82.88
55675;BME280;41562;44.330;23.802;2023-05-24T07:03:53;100073.47;;;22.72;81.20
55675;BME280;41562;44.330;23.802;2023-05-24T07:06:21;100068.41;;;23.09;77.63
55675;BME280;41562;44.330;23.802;2023-05-24T07:08:48;100065.31;;;23.11;76.85
55675;BME280;41562;44.330;23.802;2023-05-24T07:11:16;100061.50;;;23.35;75.11
55675;BME280;41562;44.330;23.802;2023-05-24T07:13:43;100059.72;;;23.23;76.20
55675;BME280;41562;44.330;23.802;2023-05-24T07:16:11;100066.31;;;23.22;74.52
55675;BME280;41562;44.330;23.802;2023-05-24T07:18:38;100059.56;;;23.35;75.37
55675;BME280;41562;44.330;23.802;2023-05-24T07:21:06;100066.44;;;23.68;72.48
55675;BME280;41562;44.330;23.802;2023-05-24T07:23:33;100055.34;;;23.18;72.99
55675;BME280;41562;44.330;23.802;2023-05-24T07:26:02;100058.06;;;22.99;75.77
55675;BME280;41562;44.330;23.802;2023-05-24T07:28:31;100060.22;;;22.55;74.63
55675;BME280;41562;44.330;23.802;2023-05-24T07:30:58;100057.38;;;22.67;75.56
55675;BME280;41562;44.330;23.802;2023-05-24T07:33:25;100046.53;;;23.06;74.27
55675;BME280;41562;44.330;23.802;2023-05-24T07:35:53;100044.63;;;23.29;71.96
55675;BME280;41562;44.330;23.802;2023-05-24T07:38:21;100043.50;;;23.49;72.85
55675;BME280;41562;44.330;23.802;2023-05-24T07:40:48;100046.91;;;23.65;72.52
55675;BME280;41562;44.330;23.802;2023-05-24T07:43:15;100046.50;;;23.63;73.26
55675;BME280;41562;44.330;23.802;2023-05-24T07:45:43;100043.50;;;23.49;73.50
55675;BME280;41562;44.330;23.802;2023-05-24T07:48:10;100050.81;;;23.64;70.20
55675;BME280;41562;44.330;23.802;2023-05-24T07:50:38;100041.16;;;23.71;71.01
55675;BME280;41562;44.330;23.802;2023-05-24T07:53:05;100046.06;;;23.61;69.37
55675;BME280;41562;44.330;23.802;2023-05-24T07:55:33;100048.78;;;23.84;69.64
55675;BME280;41562;44.330;23.802;2023-05-24T07:58:00;100046.97;;;24.15;70.40
55675;BME280;41562;44.330;23.802;2023-05-24T08:00:28;100043.25;;;24.26;68.75
55675;BME280;41562;44.330;23.802;2023-05-24T08:02:55;100048.16;;;24.40;69.59
55675;BME280;41562;44.330;23.802;2023-05-24T08:05:23;100038.78;;;24.41;68.38
55675;BME280;41562;44.330;23.802;2023-05-24T08:07:51;100048.31;;;24.51;69.08
55675;BME280;41562;44.330;23.802;2023-05-24T08:10:18;100045.66;;;24.58;70.27
55675;BME280;41562;44.330;23.802;2023-05-24T08:12:46;100051.19;;;24.61;69.42
55675;BME280;41562;44.330;23.802;2023-05-24T08:15:13;100056.19;;;24.56;72.08
55675;BME280;41562;44.330;23.802;2023-05-24T08:17:41;100055.56;;;24.66;71.80
55675;BME280;41562;44.330;23.802;2023-05-24T08:20:10;100058.59;;;24.61;68.56
55675;BME280;41562;44.330;23.802;2023-05-24T08:22:37;100059.84;;;24.67;70.09
55675;BME280;41562;44.330;23.802;2023-05-24T08:25:05;100051.25;;;24.65;70.00
55675;BME280;41562;44.330;23.802;2023-05-24T08:27:33;100048.66;;;24.75;69.99
55675;BME280;41562;44.330;23.802;2023-05-24T08:30:00;100054.28;;;24.60;67.58
55675;BME280;41562;44.330;23.802;2023-05-24T08:32:28;100045.72;;;24.35;66.89
55675;BME280;41562;44.330;23.802;2023-05-24T08:34:55;100053.09;;;24.57;67.80
55675;BME280;41562;44.330;23.802;2023-05-24T08:37:37;100052.75;;;24.62;66.76
55675;BME280;41562;44.330;23.802;2023-05-24T08:40:04;100055.78;;;24.83;66.60
55675;BME280;41562;44.330;23.802;2023-05-24T08:42:32;100051.75;;;24.74;66.39
55675;BME280;41562;44.330;23.802;2023-05-24T08:47:35;100063.91;;;25.06;66.77
55675;BME280;41562;44.330;23.802;2023-05-24T08:50:04;100060.34;;;25.02;66.14
55675;BME280;41562;44.330;23.802;2023-05-24T08:52:32;100066.94;;;24.98;66.13
55675;BME280;41562;44.330;23.802;2023-05-24T08:55:00;100061.94;;;25.03;67.25
55675;BME280;41562;44.330;23.802;2023-05-24T08:57:27;100066.31;;;25.11;66.29
55675;BME280;41562;44.330;23.802;2023-05-24T08:59:55;100073.34;;;25.09;66.62
55675;BME280;41562;44.330;23.802;2023-05-24T09:02:22;100072.22;;;25.13;65.14
55675;BME280;41562;44.330;23.802;2023-05-24T09:04:51;100060.63;;;24.94;64.63
55675;BME280;41562;44.330;23.802;2023-05-24T09:07:21;100066.34;;;24.85;65.15
55675;BME280;41562;44.330;23.802;2023-05-24T09:10:09;100065.09;;;24.79;64.30
55675;BME280;41562;44.330;23.802;2023-05-24T09:12:38;100065.88;;;24.79;64.82
55675;BME280;41562;44.330;23.802;2023-05-24T09:15:06;100062.06;;;24.84;64.76
55675;BME280;41562;44.330;23.802;2023-05-24T09:17:35;100063.97;;;25.10;66.22
55675;BME280;41562;44.330;23.802;2023-05-24T09:20:06;100059.44;;;25.24;64.89
55675;BME280;41562;44.330;23.802;2023-05-24T09:22:35;100061.53;;;25.35;65.40
55675;BME280;41562;44.330;23.802;2023-05-24T09:25:08;100048.22;;;25.37;64.02
55675;BME280;41562;44.330;23.802;2023-05-24T09:27:36;100054.81;;;25.29;65.36
55675;BME280;41562;44.330;23.802;2023-05-24T09:30:08;100048.41;;;25.17;64.73
55675;BME280;41562;44.330;23.802;2023-05-24T09:32:36;100053.03;;;25.10;65.11
55675;BME280;41562;44.330;23.802;2023-05-24T09:35:07;100046.06;;;25.16;65.68
55675;BME280;41562;44.330;23.802;2023-05-24T09:37:35;100057.50;;;25.25;66.47
55675;BME280;41562;44.330;23.802;2023-05-24T09:40:03;100052.53;;;25.34;65.65
55675;BME280;41562;44.330;23.802;2023-05-24T09:42:31;100046.88;;;25.20;64.72
55675;BME280;41562;44.330;23.802;2023-05-24T09:47:32;100044.84;;;25.50;61.87
55675;BME280;41562;44.330;23.802;2023-05-24T09:50:01;100044.34;;;25.38;65.47
55675;BME280;41562;44.330;23.802;2023-05-24T09:52:29;100051.81;;;25.41;64.19
55675;BME280;41562;44.330;23.802;2023-05-24T09:54:56;100041.59;;;25.38;65.77
55675;BME280;41562;44.330;23.802;2023-05-24T09:57:23;100039.75;;;25.49;65.76
55675;BME280;41562;44.330;23.802;2023-05-24T09:59:51;100045.22;;;25.49;65.37
55675;BME280;41562;44.330;23.802;2023-05-24T10:02:20;100041.38;;;25.53;65.34
55675;BME280;41562;44.330;23.802;2023-05-24T10:04:49;100043.25;;;25.46;64.90
55675;BME280;41562;44.330;23.802;2023-05-24T10:07:24;100039.63;;;25.35;63.63
55675;BME280;41562;44.330;23.802;2023-05-24T10:09:51;100038.41;;;25.32;63.61
55675;BME280;41562;44.330;23.802;2023-05-24T10:12:19;100038.56;;;25.46;64.36
55675;BME280;41562;44.330;23.802;2023-05-24T10:14:47;100038.13;;;25.41;62.42
55675;BME280;41562;44.330;23.802;2023-05-24T10:17:15;100039.50;;;25.57;65.06
55675;BME280;41562;44.330;23.802;2023-05-24T10:19:43;100035.50;;;25.55;61.80
55675;BME280;41562;44.330;23.802;2023-05-24T10:22:13;100037.69;;;25.39;60.25
55675;BME280;41562;44.330;23.802;2023-05-24T10:24:46;100030.47;;;25.23;61.18
55675;BME280;41562;44.330;23.802;2023-05-24T10:27:21;100035.38;;;25.41;60.96
55675;BME280;41562;44.330;23.802;2023-05-24T10:32:55;100029.22;;;25.51;62.48
55675;BME280;41562;44.330;23.802;2023-05-24T10:35:27;100026.22;;;25.63;63.10
55675;BME280;41562;44.330;23.802;2023-05-24T10:37:55;100021.63;;;25.74;62.32
55675;BME280;41562;44.330;23.802;2023-05-24T10:40:23;100025.34;;;25.55;60.47
55675;BME280;41562;44.330;23.802;2023-05-24T10:42:51;100024.69;;;25.66;61.20
55675;BME280;41562;44.330;23.802;2023-05-24T10:47:52;100023.53;;;25.67;58.17
55675;BME280;41562;44.330;23.802;2023-05-24T10:50:20;100024.66;;;25.62;58.99
55675;BME280;41562;44.330;23.802;2023-05-24T10:52:48;100012.88;;;25.58;61.13
55675;BME280;41562;44.330;23.802;2023-05-24T10:55:18;100018.00;;;25.63;61.18
55675;BME280;41562;44.330;23.802;2023-05-24T10:57:45;100020.88;;;25.77;61.59
55675;BME280;41562;44.330;23.802;2023-05-24T11:03:05;100017.94;;;26.00;56.25
55675;BME280;41562;44.330;23.802;2023-05-24T11:08:14;100004.56;;;25.91;58.29
55675;BME280;41562;44.330;23.802;2023-05-24T11:10:42;100002.41;;;25.67;55.37
55675;BME280;41562;44.330;23.802;2023-05-24T11:13:12;100006.78;;;25.75;56.57
55675;BME280;41562;44.330;23.802;2023-05-24T11:15:48;100001.84;;;25.95;58.23
55675;BME280;41562;44.330;23.802;2023-05-24T11:18:21;100000.78;;;26.10;58.06
55675;BME280;41562;44.330;23.802;2023-05-24T11:20:49;99997.69;;;26.15;57.51
55675;BME280;41562;44.330;23.802;2023-05-24T11:23:18;99996.38;;;25.95;57.47
55675;BME280;41562;44.330;23.802;2023-05-24T11:25:46;99991.03;;;25.65;56.98
55675;BME280;41562;44.330;23.802;2023-05-24T11:28:13;99987.53;;;25.65;56.24
55675;BME280;41562;44.330;23.802;2023-05-24T11:30:46;99993.44;;;25.70;56.69
55675;BME280;41562;44.330;23.802;2023-05-24T11:33:17;99978.16;;;25.69;55.01
55675;BME280;41562;44.330;23.802;2023-05-24T11:35:45;99986.97;;;25.92;58.19
55675;BME280;41562;44.330;23.802;2023-05-24T11:38:14;99979.19;;;26.05;56.76
55675;BME280;41562;44.330;23.802;2023-05-24T11:40:43;99982.72;;;25.98;55.01
55675;BME280;41562;44.330;23.802;2023-05-24T11:43:12;99975.34;;;26.10;53.19
55675;BME280;41562;44.330;23.802;2023-05-24T11:45:48;99964.00;;;26.15;55.17
55675;BME280;41562;44.330;23.802;2023-05-24T11:48:16;99968.19;;;25.94;54.98
55675;BME280;41562;44.330;23.802;2023-05-24T11:50:46;99972.47;;;25.92;55.35
55675;BME280;41562;44.330;23.802;2023-05-24T11:53:19;99970.91;;;25.94;55.64
55675;BME280;41562;44.330;23.802;2023-05-24T11:55:46;99964.75;;;26.12;56.22
55675;BME280;41562;44.330;23.802;2023-05-24T12:00:42;99964.94;;;26.33;55.76
55675;BME280;41562;44.330;23.802;2023-05-24T12:03:10;99957.38;;;26.16;55.87
55675;BME280;41562;44.330;23.802;2023-05-24T12:05:38;99967.97;;;26.21;55.25
55675;BME280;41562;44.330;23.802;2023-05-24T12:08:07;99962.84;;;26.19;54.47
55675;BME280;41562;44.330;23.802;2023-05-24T12:10:40;99957.13;;;26.35;56.30
55675;BME280;41562;44.330;23.802;2023-05-24T12:13:23;99959.28;;;26.08;55.15
55675;BME280;41562;44.330;23.802;2023-05-24T12:15:53;99952.09;;;25.93;57.36
55675;BME280;41562;44.330;23.802;2023-05-24T12:18:24;99950.69;;;26.13;58.49
55675;BME280;41562;44.330;23.802;2023-05-24T12:20:52;99947.69;;;26.32;55.82
55675;BME280;41562;44.330;23.802;2023-05-24T12:23:22;99949.34;;;26.51;55.18
55675;BME280;41562;44.330;23.802;2023-05-24T12:25:50;99951.72;;;26.56;54.91
55675;BME280;41562;44.330;23.802;2023-05-24T12:28:20;99947.00;;;26.53;56.16
55675;BME280;41562;44.330;23.802;2023-05-24T12:30:48;99945.31;;;26.27;55.57
55675;BME280;41562;44.330;23.802;2023-05-24T12:33:19;99936.28;;;25.69;56.54
55675;BME280;41562;44.330;23.802;2023-05-24T12:35:47;99942.91;;;25.68;58.17
55675;BME280;41562;44.330;23.802;2023-05-24T12:38:18;99937.34;;;26.05;58.11
55675;BME280;41562;44.330;23.802;2023-05-24T12:40:46;99935.19;;;26.35;57.73
55675;BME280;41562;44.330;23.802;2023-05-24T12:43:25;99929.63;;;26.24;56.39
55675;BME280;41562;44.330;23.802;2023-05-24T12:45:53;99931.66;;;26.38;56.79
55675;BME280;41562;44.330;23.802;2023-05-24T12:48:20;99920.31;;;26.43;53.98
55675;BME280;41562;44.330;23.802;2023-05-24T12:50:50;99920.31;;;26.43;55.63
55675;BME280;41562;44.330;23.802;2023-05-24T12:53:17;99921.81;;;26.26;54.51
55675;BME280;41562;44.330;23.802;2023-05-24T12:55:44;99913.84;;;26.03;53.88
55675;BME280;41562;44.330;23.802;2023-05-24T12:58:12;99918.56;;;26.10;53.87
55675;BME280;41562;44.330;23.802;2023-05-24T13:00:39;99911.16;;;26.14;56.35
55675;BME280;41562;44.330;23.802;2023-05-24T13:03:07;99910.09;;;26.29;54.29
55675;BME280;41562;44.330;23.802;2023-05-24T13:05:44;99912.63;;;25.97;54.10
55675;BME280;41562;44.330;23.802;2023-05-24T13:08:25;99912.41;;;26.24;54.21
55675;BME280;41562;44.330;23.802;2023-05-24T13:10:52;99901.72;;;26.08;55.59
55675;BME280;41562;44.330;23.802;2023-05-24T13:13:20;99906.25;;;25.79;54.19
55675;BME280;41562;44.330;23.802;2023-05-24T13:15:47;99909.78;;;25.80;55.46
55675;BME280;41562;44.330;23.802;2023-05-24T13:18:15;99909.72;;;25.76;56.18